createdAt,value
2023-05-22T06:21:57.926Z,90.31
2023-05-22T06:31:47.937Z,90.29
2023-05-22T06:41:46.552Z,90.66
2023-05-22T06:51:46.727Z,90.15
2023-05-22T07:01:46.837Z,90.49
2023-05-22T07:11:46.727Z,90.25
2023-05-22T07:21:46.956Z,91.02
2023-05-22T07:31:46.806Z,90.54
2023-05-22T07:41:46.620Z,90.09
2023-05-22T07:51:46.837Z,91.77
2023-05-22T08:01:46.745Z,90.12
2023-05-22T08:11:46.843Z,90.86
2023-05-22T08:21:46.931Z,91.23
2023-05-22T08:31:47.034Z,97.40
2023-05-22T08:41:46.885Z,90.42
2023-05-22T08:51:47.022Z,90.74
2023-05-22T09:01:47.144Z,92.08
2023-05-22T09:11:46.945Z,90.91
2023-05-22T09:21:47.041Z,90.26
2023-05-22T09:31:46.949Z,90.83
2023-05-22T09:41:46.849Z,90.63
2023-05-22T09:51:47.008Z,90.45
2023-05-22T10:01:46.914Z,90.57
2023-05-22T10:11:47.152Z,91.48
2023-05-22T10:21:47.010Z,91.90
2023-05-22T10:31:46.972Z,92.72
2023-05-22T10:41:47.034Z,91.42
2023-05-22T10:51:47.085Z,90.33
2023-05-22T11:01:47.131Z,90.03
2023-05-22T11:11:47.052Z,92.33
2023-05-22T11:21:46.926Z,90.45
2023-05-22T11:31:47.060Z,90.59
2023-05-22T11:41:47.139Z,91.87
2023-05-22T11:51:46.922Z,90.60
2023-05-22T12:01:47.257Z,103.73
2023-05-22T12:11:46.902Z,94.23
2023-05-22T12:21:46.849Z,91.62
2023-05-22T12:31:46.987Z,91.59
2023-05-22T12:41:47.218Z,93.48
2023-05-22T12:51:47.278Z,90.27
2023-05-22T13:01:47.152Z,96.71
2023-05-22T13:11:47.321Z,100.28
2023-05-22T13:21:47.192Z,96.09
2023-05-22T13:31:47.067Z,108.55
2023-05-22T13:41:47.419Z,111.39
2023-05-22T13:51:47.264Z,102.15
2023-05-22T14:01:47.333Z,120.54
2023-05-22T14:11:47.293Z,112.41
2023-05-22T14:21:47.265Z,119.48
2023-05-22T14:31:48.418Z,148.42
2023-05-22T14:41:47.251Z,138.59
2023-05-22T14:51:47.365Z,123.43
2023-05-22T15:01:47.579Z,139.08
2023-05-22T15:11:47.284Z,143.17
2023-05-22T15:21:47.358Z,140.04
2023-05-22T15:31:47.230Z,137.84
2023-05-22T15:41:58.315Z,143.61
2023-05-22T15:51:47.390Z,168.41
2023-05-22T16:01:47.324Z,179.14
2023-05-22T16:11:47.400Z,179.87
2023-05-22T16:21:47.370Z,180.00
2023-05-22T16:31:47.359Z,180.00
2023-05-22T16:41:47.390Z,180.00
2023-05-22T16:51:47.436Z,179.23
2023-05-22T17:01:47.420Z,181.80
2023-05-22T17:11:47.267Z,179.15
2023-05-22T17:21:47.499Z,176.27
2023-05-22T17:31:47.428Z,176.35
2023-05-22T17:41:47.365Z,182.01
2023-05-22T17:51:47.544Z,188.28
2023-05-22T18:01:47.427Z,193.17
2023-05-22T18:11:47.480Z,185.43
2023-05-22T18:21:47.526Z,180.00
2023-05-22T18:31:47.584Z,290.95
2023-05-22T18:41:47.564Z,333.45
2023-05-22T18:51:47.673Z,359.40
2023-05-22T19:01:47.803Z,346.88
2023-05-22T19:11:48.083Z,0.00
2023-05-22T19:21:48.134Z,0.00
